Time;durP1;ratioP1;P1;durP2;ratioP2;P2;SDS_P1;SDS_P2;PMS_P1;PMS_P2;Temp;Humidity;BMP_temperature;BMP_pressure;BME280_temperature;BME280_humidity;BME280_pressure;Samples;Min_cycle;Max_cycle;Signal;HPM_P1;HPM_P2
2022/06/22 00:04:25;;;;;;;2.80;1.65;;;;;;;17.02;52.04;100165.84;18360643;32;20108;-65
2022/06/22 00:14:34;;;;;;;3.28;1.48;;;;;;;17.32;51.85;100165.72;18375708;32;20112;-66
2022/06/22 00:24:41;;;;;;;2.97;1.50;;;;;;;17.02;53.59;100189.56;18375457;31;20115;-66
2022/06/22 00:34:46;;;;;;;3.72;2.05;;;;;;;16.87;53.75;100182.97;18398700;32;20089;-66
2022/06/22 00:44:52;;;;;;;2.95;1.70;;;;;;;16.12;56.70;100173.81;18405100;32;20097;-66
2022/06/22 00:54:57;;;;;;;4.72;2.00;;;;;;;16.90;55.19;100187.31;18388004;32;20103;-65
2022/06/22 01:05:11;;;;;;;2.87;1.50;;;;;;;15.46;59.35;100189.59;18383657;32;20169;-65
2022/06/22 01:15:21;;;;;;;3.70;1.87;;;;;;;15.71;58.90;100191.59;18363932;32;20108;-65
2022/06/22 01:25:46;;;;;;;2.75;1.85;;;;;;;15.17;60.47;100189.44;18383387;32;20108;-65
2022/06/22 01:35:55;;;;;;;2.40;1.70;;;;;;;15.07;61.78;100195.84;18357242;31;20132;-65
2022/06/22 01:46:05;;;;;;;4.03;2.15;;;;;;;15.00;62.50;100186.37;18356737;32;20109;-65
2022/06/22 01:56:15;;;;;;;2.58;1.77;;;;;;;14.65;64.02;100188.88;18356263;32;20093;-65
2022/06/22 02:16:49;;;;;;;2.58;1.70;;;;;;;15.18;61.80;100180.66;18354923;32;20107;-65
2022/06/22 02:26:55;;;;;;;3.03;1.98;;;;;;;14.69;64.00;100195.78;18354667;32;20459;-66
2022/06/22 02:37:01;;;;;;;4.40;2.35;;;;;;;14.52;64.82;100210.19;18354311;32;20477;-66
2022/06/22 02:47:22;;;;;;;4.30;2.00;;;;;;;14.77;64.30;100222.78;18353811;32;20410;-66
2022/06/22 02:57:40;;;;;;;3.65;2.05;;;;;;;14.33;65.17;100232.47;18353511;32;20364;-66
2022/06/22 03:07:46;;;;;;;2.85;2.10;;;;;;;13.69;67.15;100246.78;18352961;32;20111;-66
2022/06/22 03:17:51;;;;;;;4.45;2.20;;;;;;;13.69;67.83;100244.16;18407984;31;20112;-66
2022/06/22 03:27:56;;;;;;;4.95;2.05;;;;;;;14.56;65.02;100248.59;18361938;32;20101;-66
2022/06/22 03:38:05;;;;;;;4.97;2.10;;;;;;;14.68;65.52;100268.50;18361898;32;20107;-66
2022/06/22 03:48:11;;;;;;;2.85;1.60;;;;;;;14.96;65.85;100260.03;18361332;32;20112;-66
2022/06/22 03:58:19;;;;;;;4.37;2.08;;;;;;;15.64;63.42;100257.53;18360494;32;20102;-66
2022/06/22 04:08:24;;;;;;;4.62;2.03;;;;;;;16.25;62.91;100244.56;18387576;31;20089;-66
2022/06/22 04:18:33;;;;;;;4.62;1.77;;;;;;;16.75;59.56;100225.56;18360248;32;20133;-66
2022/06/22 04:28:39;;;;;;;3.65;1.87;;;;;;;17.57;57.48;100204.47;18359779;32;20093;-67
2022/06/22 04:38:48;;;;;;;4.28;2.35;;;;;;;18.68;56.13;100211.03;18412213;31;20093;-66
2022/06/22 04:48:54;;;;;;;5.70;1.77;;;;;;;18.79;57.12;100210.63;18359024;32;20097;-66
2022/06/22 04:59:00;;;;;;;3.33;1.60;;;;;;;20.57;50.96;100219.87;18358818;32;20091;-67
2022/06/22 05:09:09;;;;;;;3.08;1.60;;;;;;;21.81;47.03;100223.59;18358430;32;20089;-67
2022/06/22 05:19:14;;;;;;;3.05;1.50;;;;;;;21.76;46.34;100235.31;18357657;32;20108;-67
2022/06/22 05:29:20;;;;;;;4.62;1.33;;;;;;;22.85;43.79;100253.47;18358227;32;20415;-67
2022/06/22 05:39:24;;;;;;;2.60;1.37;;;;;;;24.21;40.39;100257.16;18357001;32;20137;-67
2022/06/22 05:49:32;;;;;;;1.80;1.23;;;;;;;22.81;42.18;100251.94;18372480;32;20106;-67
2022/06/22 05:59:40;;;;;;;1.15;1.05;;;;;;;23.70;41.27;100266.38;18355536;32;20093;-66
2022/06/22 06:09:44;;;;;;;2.97;1.52;;;;;;;23.53;43.45;100266.56;18353602;32;20098;-66
2022/06/22 06:19:51;;;;;;;2.08;1.35;;;;;;;22.77;43.43;100262.84;18362461;32;20368;-66
2022/06/22 06:29:58;;;;;;;5.82;1.33;;;;;;;21.97;44.64;100268.84;18356661;32;20106;-68
2022/06/22 06:40:04;;;;;;;1.73;1.30;;;;;;;23.00;43.15;100273.06;18371658;32;20088;-67
2022/06/22 06:50:14;;;;;;;2.78;1.08;;;;;;;23.66;42.97;100272.00;18392736;32;20381;-68
2022/06/22 07:00:19;;;;;;;1.17;0.90;;;;;;;23.97;38.96;100270.16;18480059;31;20093;-67
2022/06/22 07:10:25;;;;;;;1.90;0.90;;;;;;;24.06;35.64;100264.31;18424609;32;20120;-67
2022/06/22 07:20:34;;;;;;;1.25;0.75;;;;;;;24.85;32.73;100239.88;18362809;31;20096;-67
2022/06/22 07:30:42;;;;;;;3.60;0.75;;;;;;;26.52;28.92;100236.69;18451605;31;20174;-67
2022/06/22 07:51:07;;;;;;;0.98;0.50;;;;;;;27.81;26.08;100220.00;18403081;31;20425;-68
2022/06/22 08:01:14;;;;;;;1.30;0.77;;;;;;;27.28;26.57;100223.97;18360766;32;20097;-67
2022/06/22 08:11:22;;;;;;;2.12;1.10;;;;;;;27.31;26.56;100220.19;18414279;31;20111;-68
2022/06/22 08:21:27;;;;;;;1.12;0.82;;;;;;;26.18;27.53;100208.69;18444656;31;80982;-68
2022/06/22 08:31:34;;;;;;;1.55;0.88;;;;;;;26.96;27.51;100203.13;18398021;31;20093;-68
2022/06/22 08:41:48;;;;;;;0.77;0.70;;;;;;;27.45;26.02;100181.62;18410143;32;20111;-67
2022/06/22 08:52:07;;;;;;;3.12;0.82;;;;;;;26.71;26.16;100196.06;18378984;32;20785;-68
2022/06/22 09:02:45;;;;;;;1.58;0.82;;;;;;;27.53;26.59;100183.69;18357866;32;20130;-67
2022/06/22 09:13:07;;;;;;;1.23;0.80;;;;;;;27.65;26.54;100195.34;18368458;32;20120;-68
2022/06/22 09:23:25;;;;;;;1.23;0.62;;;;;;;27.37;26.56;100186.72;18396153;32;20116;-67
2022/06/22 09:33:54;;;;;;;0.43;0.43;;;;;;;27.51;24.80;100181.16;18271323;32;20172;-68
2022/06/22 09:44:33;;;;;;;2.45;0.60;;;;;;;28.72;23.56;100180.63;18340101;31;20123;-69
2022/06/22 10:05:42;;;;;;;1.23;0.50;;;;;;;28.67;22.21;100163.09;18403639;31;20097;-67
2022/06/22 10:16:13;;;;;;;1.93;0.70;;;;;;;29.18;23.54;100157.16;18389426;32;20104;-67
2022/06/22 10:26:28;;;;;;;1.58;0.70;;;;;;;29.53;25.48;100155.16;18354153;32;20179;-69
2022/06/22 10:36:53;;;;;;;0.57;0.57;;;;;;;29.20;22.03;100158.72;18362222;32;20357;-67
2022/06/22 10:47:09;;;;;;;0.50;0.50;;;;;;;28.42;22.34;100164.25;18394234;32;20115;-67
2022/06/22 10:57:24;;;;;;;1.35;0.70;;;;;;;28.74;26.47;100167.94;18393206;31;20146;-65
2022/06/22 11:07:47;;;;;;;0.43;0.43;;;;;;;29.98;23.33;100168.25;18406067;31;20091;-67
2022/06/22 11:18:10;;;;;;;0.75;0.50;;;;;;;29.86;23.07;100154.03;18372779;32;20104;-67
2022/06/22 11:39:00;;;;;;;0.30;0.30;;;;;;;30.48;21.86;100155.81;18378982;32;20105;-68
2022/06/22 11:49:32;;;;;;;1.37;0.60;;;;;;;30.50;19.02;100148.44;18423304;31;20097;-67
2022/06/22 11:59:51;;;;;;;0.90;0.30;;;;;;;30.74;19.29;100128.34;18386275;32;20140;-67
2022/06/22 12:10:04;;;;;;;0.90;0.73;;;;;;;30.92;21.54;100127.63;18416417;32;20436;-68
2022/06/22 12:20:18;;;;;;;0.85;0.50;;;;;;;30.79;18.36;100122.53;18372154;32;20122;-68
2022/06/22 12:30:33;;;;;;;1.35;0.57;;;;;;;30.87;19.76;100099.28;18356080;32;20441;-67
2022/06/22 12:40:45;;;;;;;0.50;0.50;;;;;;;31.01;18.21;100099.81;18356097;32;20085;-67
2022/06/22 12:51:17;;;;;;;1.20;0.50;;;;;;;30.92;18.37;100096.16;18460479;31;20108;-68
2022/06/22 13:01:21;;;;;;;0.65;0.47;;;;;;;31.38;19.74;100088.25;18534940;32;20142;-69
2022/06/22 13:11:29;;;;;;;0.95;0.57;;;;;;;31.99;20.33;100081.66;18525823;32;20093;-67
2022/06/22 13:21:38;;;;;;;0.47;0.47;;;;;;;31.66;18.95;100072.09;18360989;32;20089;-68
2022/06/22 13:31:45;;;;;;;0.40;0.40;;;;;;;31.85;18.42;100064.13;18665683;31;20099;-68
2022/06/22 13:42:06;;;;;;;2.47;0.55;;;;;;;31.89;18.17;100052.88;18690365;31;20396;-68
2022/06/22 13:52:22;;;;;;;0.93;0.50;;;;;;;32.16;17.44;100039.47;18689713;31;20701;-67
2022/06/22 14:02:46;;;;;;;1.02;0.60;;;;;;;31.65;18.12;100038.03;18688652;31;20084;-67
2022/06/22 14:12:53;;;;;;;0.55;0.50;;;;;;;32.42;18.74;100026.06;18686901;31;20088;-69
2022/06/22 14:23:01;;;;;;;2.90;0.60;;;;;;;31.49;18.12;100022.50;18661610;31;20093;-67
2022/06/22 14:33:25;;;;;;;1.05;0.60;;;;;;;31.54;20.43;100020.22;18468723;31;20100;-67
2022/06/22 14:43:32;;;;;;;2.62;0.80;;;;;;;31.21;21.03;100024.31;18413634;32;20104;-68
2022/06/22 14:53:48;;;;;;;2.65;0.90;;;;;;;31.44;21.79;100018.56;18364846;32;20101;-67
2022/06/22 15:03:56;;;;;;;2.67;0.77;;;;;;;31.39;23.18;100013.63;18407374;31;20081;-68
2022/06/22 15:14:15;;;;;;;1.45;0.90;;;;;;;31.35;21.87;99993.34;18406475;32;20645;-68
2022/06/22 15:24:25;;;;;;;2.30;0.70;;;;;;;31.03;23.74;99973.00;18421883;31;20117;-68
2022/06/22 15:34:37;;;;;;;1.17;0.77;;;;;;;30.88;23.32;99962.72;18400456;32;20509;-67
2022/06/22 15:44:44;;;;;;;2.33;0.93;;;;;;;30.63;24.23;99961.47;18425048;32;20088;-66
2022/06/22 15:55:01;;;;;;;1.30;0.80;;;;;;;30.45;23.76;99959.53;18422519;32;20145;-66
2022/06/22 16:05:09;;;;;;;1.45;1.00;;;;;;;30.71;24.18;99950.84;18424716;32;20532;-65
2022/06/22 16:15:21;;;;;;;4.45;1.00;;;;;;;29.58;24.36;99943.16;18423656;32;20130;-66
2022/06/22 16:25:26;;;;;;;2.03;0.90;;;;;;;29.48;24.74;99935.09;18420064;31;20383;-72
2022/06/22 16:35:37;;;;;;;1.20;0.77;;;;;;;29.47;25.87;99944.97;18474422;31;20704;-56
2022/06/22 16:45:54;;;;;;;8.10;2.40;;;;;;;30.78;24.51;99919.63;18421826;32;20093;-57
2022/06/22 16:55:59;;;;;;;1.85;0.90;;;;;;;30.92;23.74;99907.53;18422385;32;20139;-57
2022/06/22 17:06:06;;;;;;;1.73;0.95;;;;;;;30.35;24.85;99903.00;18420274;32;20107;-56
2022/06/22 17:16:16;;;;;;;2.22;0.90;;;;;;;30.10;26.04;99915.22;18419136;32;20108;-56
2022/06/22 17:26:27;;;;;;;1.20;0.80;;;;;;;29.40;26.99;99932.19;18360266;31;20097;-56
2022/06/22 17:36:50;;;;;;;11.48;1.50;;;;;;;29.04;26.62;99927.28;18446941;31;20112;-57
2022/06/22 17:46:59;;;;;;;3.65;1.30;;;;;;;28.63;27.41;99919.97;18354124;32;20085;-57
2022/06/22 17:57:06;;;;;;;1.90;0.98;;;;;;;28.36;29.19;99931.25;18388877;32;20161;-56
2022/06/22 18:07:23;;;;;;;2.47;1.00;;;;;;;28.14;31.53;99934.88;18413430;32;20093;-56
2022/06/22 18:17:28;;;;;;;1.50;0.93;;;;;;;28.11;30.56;99942.19;18415713;32;20326;-56
2022/06/22 18:27:36;;;;;;;2.75;1.02;;;;;;;27.71;31.65;99958.91;18414766;31;20093;-56
2022/06/22 18:37:45;;;;;;;4.57;1.17;;;;;;;27.46;31.03;99963.56;18414212;32;20108;-56
2022/06/22 18:47:54;;;;;;;5.55;2.35;;;;;;;27.36;28.78;99955.37;18415365;32;20149;-56
2022/06/22 18:58:17;;;;;;;4.15;1.25;;;;;;;27.53;28.47;99971.94;18423927;32;20107;-56
2022/06/22 19:08:22;;;;;;;2.37;1.00;;;;;;;27.36;28.99;99958.06;18423981;32;20096;-56
2022/06/22 19:18:38;;;;;;;3.80;1.48;;;;;;;26.91;30.60;99950.06;18423570;32;20344;-56
2022/06/22 19:28:51;;;;;;;2.20;1.05;;;;;;;26.36;34.86;99948.81;18422957;32;20116;-56
2022/06/22 19:39:03;;;;;;;1.85;1.00;;;;;;;26.18;33.52;99956.37;18372582;32;20089;-56
2022/06/22 19:49:14;;;;;;;2.37;0.98;;;;;;;25.99;34.10;99962.22;18407925;31;20127;-56
2022/06/22 19:59:20;;;;;;;2.78;1.20;;;;;;;25.83;34.45;99968.75;18359288;32;20485;-56
2022/06/22 20:09:28;;;;;;;1.62;1.00;;;;;;;25.80;37.53;99976.13;18360009;32;20089;-56
2022/06/22 20:19:33;;;;;;;1.98;1.10;;;;;;;25.19;37.72;99996.41;18358905;31;20373;-56
2022/06/22 20:29:43;;;;;;;4.68;1.00;;;;;;;25.00;37.92;99989.69;18359032;32;20104;-56
2022/06/22 20:39:52;;;;;;;1.48;0.95;;;;;;;24.44;38.39;99990.75;18438178;31;20097;-56
2022/06/22 20:50:02;;;;;;;1.85;1.10;;;;;;;24.45;39.48;99986.31;18430613;31;20213;-56
2022/06/22 21:00:23;;;;;;;1.75;1.00;;;;;;;23.71;42.37;99966.16;18356950;32;20124;-57
2022/06/22 21:10:29;;;;;;;1.75;1.10;;;;;;;24.43;40.20;99973.06;18356832;32;20101;-57
2022/06/22 21:20:57;;;;;;;2.72;1.20;;;;;;;24.25;41.11;99970.66;18356751;32;20346;-56
2022/06/22 21:31:09;;;;;;;2.72;1.00;;;;;;;24.13;41.69;99973.28;18356565;32;20458;-56
2022/06/22 21:41:35;;;;;;;2.40;1.00;;;;;;;24.11;42.16;99963.59;18356476;32;20089;-56
2022/06/22 21:51:43;;;;;;;1.37;1.12;;;;;;;23.93;43.78;99959.44;18356612;32;20366;-56
2022/06/22 22:01:52;;;;;;;1.27;1.12;;;;;;;24.01;43.51;99962.44;18356594;32;20089;-56
2022/06/22 22:11:58;;;;;;;2.92;1.20;;;;;;;23.55;44.88;99982.28;18356009;32;20175;-56
2022/06/22 22:22:03;;;;;;;1.98;1.12;;;;;;;23.32;45.26;99965.09;18355784;32;20094;-56
2022/06/22 22:32:06;;;;;;;3.05;1.50;;;;;;;23.40;47.21;99962.81;18354974;32;20112;-56
2022/06/22 22:42:14;;;;;;;2.53;1.40;;;;;;;23.60;47.73;99977.50;18359377;32;20478;-56
2022/06/22 22:52:25;;;;;;;2.70;1.40;;;;;;;23.50;48.06;99971.91;18417852;32;20085;-56
2022/06/22 23:02:33;;;;;;;3.15;1.42;;;;;;;23.53;48.49;99970.87;18417596;31;20143;-56
2022/06/22 23:12:36;;;;;;;4.50;1.40;;;;;;;23.34;48.89;99973.84;18417157;32;20093;-56
2022/06/22 23:22:46;;;;;;;2.00;1.37;;;;;;;23.36;48.73;99983.44;18416417;32;20093;-56
2022/06/22 23:32:49;;;;;;;2.85;1.50;;;;;;;23.16;49.66;100002.44;18417611;32;20092;-56
2022/06/22 23:42:55;;;;;;;1.85;1.23;;;;;;;23.10;50.82;100024.97;18425793;32;20184;-56
2022/06/22 23:53:00;;;;;;;2.17;1.48;;;;;;;22.93;52.81;100033.94;18425829;32;20104;-56
